Have a Safe July 4th! 

Flight Track Log - Related Links

Times and Time Zones

All times are in EDT time to prevent confusion due to time zone crossing. See the ANA9397 flight status page for this flight to view local times or setup timezone preferences in your user account.

Time Position Orientation Groundspeed Altitude Reporting Facility
EDT Latitude Longitude Course Direction KTS MPH feet Rate Location/Type
Thu 10:24:22 PM 47.8220 -122.5430 268° West 271 312 8,100  Level FlightAware ADS-B
Thu 10:24:51 PM 47.8230 -122.6000 272° West 273 314 9,200 2,000 Climbing FlightAware ADS-B
Thu 10:25:37 PM 47.8280 -122.6890 275° West 308 354 10,600 1,744 Climbing FlightAware ADS-B
Thu 10:26:17 PM 47.8340 -122.7790 276° West 340 391 11,700 2,175 Climbing FlightAware ADS-B
Thu 10:26:57 PM 47.8410 -122.8730 276° West 347 399 13,500 2,550 Climbing FlightAware ADS-B
Thu 10:27:37 PM 47.8520 -122.9580 281° West 354 407 15,100 2,509 Climbing FlightAware ADS-B
Thu 10:27:52 PM 47.8670 -122.9960 300° West 360 414 15,800 2,571 Climbing FlightAware ADS-B
Thu 10:28:33 PM 47.9180 -123.0680 317° Northwest 375 432 17,500 2,471 Climbing FlightAware ADS-B
Thu 10:29:17 PM 47.9770 -123.1480 318° Northwest 375 432 19,300 2,225 Climbing FlightAware ADS-B
Thu 10:30:02 PM 48.0340 -123.2280 317° Northwest 381 438 20,800 2,047 Climbing FlightAware ADS-B
Thu 10:30:42 PM 48.0870 -123.3010 317° Northwest 385 443 22,200 2,053 Climbing FlightAware ADS-B
Thu 10:31:18 PM 48.1360 -123.3700 317° Northwest 397 457 23,400 2,175 Climbing FlightAware ADS-B
Thu 10:32:02 PM 48.1950 -123.4530 317° Northwest 396 456 25,100 2,267 Climbing FlightAware ADS-B
Thu 10:32:48 PM 48.2550 -123.5370 317° Northwest 384 442 26,800 2,093 Climbing FlightAware ADS-B
Thu 10:33:28 PM 48.3070 -123.6110 317° Northwest 384 442 28,100 1,765 Climbing FlightAware ADS-B
Thu 10:34:13 PM 48.3670 -123.6980 316° Northwest 396 456 29,300 1,271 Climbing FlightAware ADS-B
Thu 10:34:53 PM 48.4160 -123.7790 312° West 403 464 29,900 975 Climbing FlightAware ADS-B
Thu 10:35:33 PM 48.4670 -123.8690 311° West 412 474 30,600 1,186 Climbing FlightAware ADS-B
Thu 10:36:19 PM 48.5240 -123.9710 310° West 425 489 31,600 1,186 Climbing FlightAware ADS-B
Thu 10:36:59 PM 48.5750 -124.0610 311° West 426 490 32,300 1,350 Climbing FlightAware ADS-B
Thu 10:37:39 PM 48.6270 -124.1520 311° West 427 491 33,400 1,412 Climbing FlightAware ADS-B
Thu 10:38:24 PM 48.6840 -124.2540 310° West 430 495 34,300 1,129 Climbing FlightAware ADS-B
Thu 10:39:04 PM 48.7350 -124.3460 310° West 430 495 35,000 1,125 Climbing FlightAware ADS-B
Thu 10:39:44 PM 48.7870 -124.4380 311° West 430 495 35,800 1,000 Climbing FlightAware ADS-B
Thu 10:40:28 PM 48.8420 -124.5380 310° West 431 496 36,400 800 Climbing FlightAware ADS-B
Thu 10:41:14 PM 48.9020 -124.6450 310° West 428 493 37,000 897 Climbing FlightAware ADS-B
Thu 10:41:55 PM 48.9550 -124.7400 310° West 429 494 37,700 741 Climbing FlightAware ADS-B
Thu 10:42:35 PM 49.0060 -124.8340 310° West 430 495 38,000 217 Climbing FlightAware ADS-B
Thu 10:43:18 PM 49.0630 -124.9380 310° West 441 507 38,000  Level FlightAware ADS-B
Thu 10:44:01 PM 49.1170 -125.0360 310° West 443 510 38,000  Level FlightAware ADS-B
Thu 10:44:40 PM 49.1700 -125.1340 310° West 443 510 38,000  Level FlightAware ADS-B
Thu 10:45:26 PM 49.2310 -125.2460 310° West 443 510 38,000  Level FlightAware ADS-B
Thu 10:46:06 PM 49.2820 -125.3400 310° West 443 510 38,000  Level FlightAware ADS-B
Thu 10:46:51 PM 49.3400 -125.4480 310° West 445 512 38,000  Level FlightAware ADS-B
Thu 10:47:32 PM 49.3940 -125.5500 309° West 446 513 38,000  Level FlightAware ADS-B
Thu 10:48:12 PM 49.4460 -125.6470 310° West 446 513 38,000  Level FlightAware ADS-B
Thu 10:48:56 PM 49.5050 -125.7570 310° West 447 514 38,000  Level FlightAware ADS-B
Thu 10:49:37 PM 49.5560 -125.8540 309° West 447 514 38,000  Level FlightAware ADS-B
Thu 10:50:14 PM 49.6050 -125.9450 310° West 447 514 38,000  Level FlightAware ADS-B
Thu 10:51:02 PM 49.6680 -126.0650 309° West 447 514 38,000  Level FlightAware ADS-B
Thu 10:51:42 PM 49.7200 -126.1640 309° West 448 516 38,000  Level FlightAware ADS-B
Thu 10:52:18 PM 49.7680 -126.2570 309° West 448 516 38,000  Level FlightAware ADS-B
Thu 10:53:08 PM 49.8320 -126.3790 309° West 447 514 38,000  Level FlightAware ADS-B
Thu 10:53:48 PM 49.8830 -126.4780 309° West 447 514 38,000  Level FlightAware ADS-B
Thu 10:54:31 PM 49.9370 -126.5840 308° West 442 509 38,000  Level FlightAware ADS-B
Thu 10:55:11 PM 49.9840 -126.6750 309° West 442 509 38,000  Level FlightAware ADS-B
Thu 10:55:52 PM 50.0390 -126.7820 309° West 447 514 38,000  Level FlightAware ADS-B
Thu 10:56:40 PM 50.0910 -126.8850 308° West 447 514 38,000  Level FlightAware ADS-B
Thu 10:57:18 PM 50.1320 -126.9680 308° West 447 514 38,000  Level FlightAware ADS-B
Thu 10:58:02 PM 50.1990 -127.1000 308° West 445 512 38,000  Level FlightAware ADS-B
Thu 10:59:00 PM 50.2730 -127.2470 308° West 445 512 38,000  Level FlightAware ADS-B
Thu 10:59:52 PM 50.3460 -127.3920 308° West 451 519 38,000  Level FlightAware ADS-B
Thu 11:00:29 PM 50.3850 -127.4740 307° West 451 519 38,000  Level FlightAware ADS-B
Thu 11:01:14 PM 50.4550 -127.6110 309° West 454 522 38,000  Level FlightAware ADS-B
Thu 11:02:02 PM 50.5090 -127.7220 307° West 454 522 38,000  Level FlightAware ADS-B
Thu 11:02:37 PM 50.5460 -127.8000 307° West 454 522 38,000  Level FlightAware ADS-B
Thu 11:03:23 PM 50.5960 -127.9030 307° West 454 522 38,000  Level FlightAware ADS-B
Thu 11:03:59 PM 50.6350 -127.9840 307° West 454 522 38,000  Level FlightAware ADS-B
Thu 11:04:48 PM 50.6870 -128.0950 307° West 454 522 38,000  Level FlightAware ADS-B
Thu 11:05:26 PM 50.7280 -128.1800 307° West 454 522 38,000  Level FlightAware ADS-B
Thu 11:06:12 PM 50.7770 -128.2840 307° West 454 522 38,000  Level FlightAware ADS-B
Thu 11:06:48 PM 50.8160 -128.3650 307° West 454 522 38,000  Level FlightAware ADS-B
Thu 11:07:37 PM 50.8690 -128.4760 307° West 454 522 38,000  Level FlightAware ADS-B
Thu 11:08:13 PM 50.9070 -128.5570 307° West 454 522 38,000  Level FlightAware ADS-B
Thu 11:09:01 PM 50.9590 -128.6660 307° West 454 522 38,000  Level FlightAware ADS-B
Thu 11:09:37 PM 50.9980 -128.7470 307° West 454 522 38,000  Level FlightAware ADS-B
Thu 11:10:23 PM 51.0470 -128.8520 307° West 454 522 38,000  Level FlightAware ADS-B
Thu 11:10:59 PM 51.0860 -128.9330 307° West 454 522 38,000  Level FlightAware ADS-B
Thu 11:11:27 PM 51.2167 -129.2333 307° West 460 529 38,000  Level Vancouver Center
Thu 11:12:27 PM 51.3000 -129.4167 306° West 460 529 38,000  Level Vancouver Center
Thu 11:13:27 PM 51.3667 -129.5833 303° West 460 529 38,000  Level Vancouver Center
Thu 11:14:27 PM 51.4500 -129.7500 309° West 460 529 38,000  Level Vancouver Center
Thu 11:15:27 PM 51.5167 -129.9000 306° West 460 529 38,000  Level Vancouver Center
Thu 11:16:27 PM 51.6000 -130.0667 309° West 460 529 38,000  Level Vancouver Center
Thu 11:17:27 PM 51.6667 -130.2333 303° West 460 529 38,000  Level Vancouver Center
Thu 11:18:27 PM 51.7500 -130.4167 306° West 460 529 38,000  Level Vancouver Center
Thu 11:19:27 PM 51.8167 -130.5833 303° West 450 518 38,000  Level Vancouver Center
Thu 11:20:27 PM 51.9000 -130.7333 312° West 460 529 38,000  Level Vancouver Center
Thu 11:21:27 PM 51.9667 -130.9000 303° West 460 529 38,000  Level Vancouver Center
Thu 11:22:27 PM 52.0333 -131.0833 301° West 460 529 38,000  Level Vancouver Center
Thu 11:23:27 PM 52.1167 -131.2500 309° West 460 529 38,000 100 Level Vancouver Center
Thu 11:24:27 PM 52.1833 -131.4333 301° West 460 529 38,200 400 Climbing Vancouver Center
Thu 11:25:27 PM 52.2500 -131.6000 303° West 460 529 38,800 650 Climbing Vancouver Center
Thu 11:26:27 PM 52.3333 -131.7500 312° West 460 529 39,500 600 Climbing Vancouver Center
Thu 11:27:27 PM 52.4000 -131.9333 301° West 460 529 40,000 250 Climbing Vancouver Center
Thu 11:28:27 PM 52.4667 -132.1167 301° West 460 529 40,000  Level Vancouver Center
Thu 11:29:27 PM 52.5500 -132.3000 307° West 470 541 40,000  Level Vancouver Center
Thu 11:30:27 PM 52.6167 -132.4667 303° West 470 541 40,000  Level Vancouver Center
Thu 11:31:27 PM 52.6833 -132.6500 301° West 470 541 40,000  Level Vancouver Center
Thu 11:32:27 PM 52.7500 -132.8333 301° West 470 541 40,000  Level Vancouver Center
Thu 11:33:27 PM 52.8500 -133.0167 312° West 470 541 40,000  Level Vancouver Center
Thu 11:34:27 PM 52.9167 -133.2000 301° West 470 541 40,000  Level Vancouver Center
Thu 11:35:27 PM 52.9833 -133.3833 301° West 470 541 40,000  Level Vancouver Center
Thu 11:36:27 PM 53.0500 -133.5667 301° West 480 552 40,000  Level Vancouver Center
Thu 11:37:27 PM 53.1167 -133.7500 301° West 480 552 40,000  Level Vancouver Center
Thu 11:38:27 PM 53.1833 -133.9333 301° West 480 552 40,000  Level Vancouver Center
Thu 11:39:27 PM 53.2500 -134.1167 301° West 480 552 40,000  Level Vancouver Center
Thu 11:40:27 PM 53.3500 -134.3000 312° West 480 552 40,000  Level Vancouver Center
Thu 11:41:27 PM 53.4167 -134.5000 299° West 480 552 40,000  Level Vancouver Center
Thu 11:42:27 PM 53.5000 -134.6833 307° West 480 552 40,000  Level Vancouver Center
Thu 11:43:27 PM 53.5667 -134.8667 302° West 480 552 40,000  Level Vancouver Center
Thu 11:44:27 PM 53.6333 -135.0833 297° West 480 552 40,000  Level Vancouver Center
Thu 11:45:27 PM 53.7000 -135.2500 304° West 480 552 40,000  Level Vancouver Center
Thu 11:46:27 PM 53.7667 -135.4333 302° West 480 552 40,000  Level Vancouver Center
Thu 11:47:15 PM 53.8333 -135.5500 314° West 480 552 40,000  Level Anchorage Center
Thu 11:48:16 PM 53.9000 -135.7500 300° West 480 552 40,000  Level Anchorage Center
Thu 11:49:16 PM 53.9667 -135.9333 302° West 490 564 40,000  Level Anchorage Center
Thu 11:50:16 PM 54.0333 -136.1333 300° West 480 552 40,000  Level Anchorage Center
Thu 11:51:17 PM 54.1000 -136.3333 300° West 490 564 40,000  Level Anchorage Center
Thu 11:52:17 PM 54.1667 -136.5500 298° West 480 552 40,000  Level Anchorage Center
Thu 11:53:17 PM 54.2167 -136.7167 297° West 490 564 40,000  Level Anchorage Center
Thu 11:54:18 PM 54.2833 -136.9333 298° West 480 552 40,000  Level Anchorage Center
Thu 11:55:17 PM 54.3500 -137.1333 300° West 480 552 40,000  Level Anchorage Center
Thu 11:56:18 PM 54.4167 -137.3333 300° West 490 564 40,000  Level Anchorage Center
Thu 11:57:18 PM 54.4833 -137.5333 300° West 480 552 40,000  Level Anchorage Center
Thu 11:58:19 PM 54.5333 -137.7500 292° West 480 552 40,000  Level Anchorage Center
Thu 11:59:19 PM 54.6000 -137.9667 298° West 490 564 40,000  Level Anchorage Center
Fri 12:00:19 AM 54.6667 -138.1667 300° West 480 552 40,000  Level Anchorage Center
Fri 12:01:20 AM 54.7167 -138.3667 293° West 480 552 40,000  Level Anchorage Center
Fri 12:02:20 AM 54.7833 -138.5833 298° West 490 564 40,000  Level Anchorage Center
Fri 12:03:20 AM 54.8500 -138.8000 298° West 490 564 40,000  Level Anchorage Center
Fri 12:04:21 AM 54.9167 -139.0167 298° West 490 564 40,000  Level Anchorage Center
Fri 12:05:21 AM 54.9667 -139.2167 294° West 480 552 40,000  Level Anchorage Center
Fri 12:06:21 AM 55.0333 -139.4333 298° West 500 575 40,000  Level Anchorage Center
Fri 12:07:22 AM 55.0833 -139.6500 292° West 480 552 40,000  Level Anchorage Center
Fri 12:08:22 AM 55.1500 -139.8667 298° West 480 552 40,000  Level Anchorage Center
Fri 12:09:23 AM 55.2000 -140.0833 292° West 480 552 40,000  Level Anchorage Center
Fri 12:10:23 AM 55.2667 -140.3000 298° West 480 552 40,000  Level Anchorage Center
Fri 12:11:23 AM 55.3333 -140.5167 298° West 500 575 40,000  Level Anchorage Center
Fri 12:13:24 AM 55.4500 -140.9500 296° West 490 564 40,000  Level Anchorage Center
Fri 12:14:24 AM 55.5000 -141.1667 292° West 490 564 40,000  Level Anchorage Center
Fri 12:15:25 AM 55.5500 -141.3833 292° West 490 564 40,000  Level Anchorage Center
Fri 12:16:25 AM 55.6167 -141.6000 299° West 490 564 40,000  Level Anchorage Center
Fri 12:17:25 AM 55.6667 -141.8333 291° West 490 564 40,000  Level Anchorage Center
Fri 12:18:26 AM 55.7333 -142.1000 294° West 480 552 40,000  Level Anchorage Center
Fri 12:19:26 AM 55.7833 -142.3167 292° West 490 564 40,000  Level Anchorage Center
Fri 12:20:27 AM 55.8333 -142.5000 296° West 490 564 40,000  Level Anchorage Center
Fri 12:21:27 AM 55.9000 -142.7667 294° West 490 564 40,000  Level Anchorage Center
Fri 12:22:27 AM 55.9500 -142.9833 292° West 490 564 40,000  Level Anchorage Center
Fri 12:23:28 AM 56.0000 -143.1833 294° West 500 575 40,000  Level Anchorage Center
Fri 12:24:28 AM 56.0500 -143.4167 291° West 500 575 40,000  Level Anchorage Center
Fri 12:25:28 AM 56.1000 -143.6500 291° West 500 575 40,000  Level Anchorage Center
Fri 12:26:29 AM 56.1500 -143.8833 291° West 490 564 40,000  Level Anchorage Center
Fri 12:27:29 AM 56.2167 -144.1333 296° West 490 564 40,000  Level Anchorage Center
Fri 12:28:29 AM 56.2667 -144.3333 294° West 490 564 40,000  Level Anchorage Center
Fri 12:29:30 AM 56.3167 -144.5667 291° West 490 564 40,000  Level Anchorage Center
Fri 12:30:30 AM 56.3667 -144.8000 291° West 500 575 40,000  Level Anchorage Center
Fri 12:31:30 AM 56.4167 -145.0333 291° West 500 575 40,000  Level Anchorage Center
Fri 12:32:31 AM 56.4667 -145.2833 290° West 500 575 40,000  Level Anchorage Center
Fri 12:33:31 AM 56.5167 -145.5000 293° West 490 564 40,000  Level Anchorage Center
Fri 12:34:31 AM 56.5667 -145.7333 291° West 490 564 40,000  Level Anchorage Center
Fri 12:35:31 AM 56.6167 -145.9667 291° West 490 564 40,000  Level Anchorage Center
Fri 12:36:32 AM 56.6667 -146.2000 291° West 490 564 40,000  Level Anchorage Center
Fri 12:37:32 AM 56.7167 -146.4333 291° West 490 564 40,000  Level Anchorage Center
Fri 12:39:00 AM 56.7808 -146.7640 290° West  Level FlightAware Approximate
Fri 12:40:33 AM 56.8500 -147.1500 290° West 500 575 40,000  Level Anchorage Center
Fri 12:41:33 AM 56.9000 -147.4000 290° West 490 564 40,000  Level Anchorage Center
Fri 12:42:34 AM 56.9500 -147.6333 292° West 490 564 40,000  Level Anchorage Center
Fri 12:43:34 AM 57.0000 -147.8833 290° West 490 564 40,000  Level Anchorage Center
Fri 12:44:34 AM 57.0333 -148.1167 285° West 490 564 40,000  Level Anchorage Center
Fri 12:45:35 AM 57.0833 -148.3500 292° West 490 564 40,000  Level Anchorage Center
Fri 12:46:35 AM 57.1333 -148.6000 290° West 490 564 40,000  Level Anchorage Center
Fri 12:47:36 AM 57.1833 -148.8833 288° West 490 564 40,000  Level Anchorage Center
Fri 12:48:36 AM 57.2167 -149.0833 287° West 490 564 40,000  Level Anchorage Center
Fri 12:49:36 AM 57.2667 -149.3667 288° West 490 564 40,000  Level Anchorage Center
Fri 12:50:37 AM 57.3000 -149.6167 284° West 490 564 40,000  Level Anchorage Center
Fri 12:51:37 AM 57.3500 -149.8667 290° West 490 564 40,000  Level Anchorage Center
Fri 12:52:37 AM 57.3833 -150.1167 284° West 500 575 40,000  Level Anchorage Center
Fri 12:53:38 AM 57.4333 -150.3500 292° West 490 564 40,000  Level Anchorage Center
Fri 12:54:38 AM 57.4667 -150.6000 284° West 490 564 40,000  Level Anchorage Center
Fri 12:55:38 AM 57.5000 -150.8500 284° West 490 564 40,000  Level Anchorage Center
Fri 12:56:39 AM 57.5500 -151.1000 291° West 490 564 40,000  Level Anchorage Center
Fri 12:57:39 AM 57.5833 -151.3500 284° West 490 564 40,000  Level Anchorage Center
Fri 12:58:39 AM 57.6167 -151.6000 284° West 490 564 40,000  Level Anchorage Center
Fri 12:59:40 AM 57.6500 -151.8500 284° West 490 564 40,000  Level Anchorage Center
Fri 01:01:00 AM 57.7008 -152.1628 285° West  Level FlightAware Approximate
Fri 01:01:41 AM 57.7167 -152.3500 285° West 490 564 40,000  Level Anchorage Center
Fri 01:03:00 AM 57.7593 -152.6634 284° West  Level FlightAware Approximate
Fri 01:04:42 AM 57.8167 -153.1167 284° West 500 575 40,000  Level Anchorage Center
Fri 01:05:42 AM 57.8500 -153.3667 284° West 500 575 40,000  Level Anchorage Center
Fri 01:06:42 AM 57.8833 -153.6167 284° West 500 575 40,000  Level Anchorage Center
Fri 01:07:43 AM 57.9167 -153.8833 283° West 500 575 40,000  Level Anchorage Center
Fri 01:08:43 AM 57.9500 -154.1333 284° West 490 564 40,000  Level Anchorage Center
Fri 01:09:43 AM 57.9833 -154.3833 284° West 500 575 40,000  Level Anchorage Center
Fri 01:10:00 AM 57.9731 -154.3416 284° West  Level FlightAware Approximate
Fri 01:10:44 AM 58.0167 -154.6500 283° West 500 575 40,000  Level Anchorage Center
Fri 01:11:44 AM 58.0500 -154.9000 284° West 500 575 40,000  Level Anchorage Center
Fri 01:12:44 AM 58.0667 -155.2000 276° West 510 587 40,000  Level Anchorage Center
Fri 01:13:45 AM 58.1000 -155.4500 284° West 500 575 40,000  Level Anchorage Center
Fri 01:14:45 AM 58.1333 -155.7167 283° West 500 575 40,000  Level Anchorage Center
Fri 01:15:45 AM 58.1667 -155.9833 283° West 500 575 40,000  Level Anchorage Center
Fri 01:16:46 AM 58.1833 -156.2500 277° West 500 575 40,000  Level Anchorage Center
Fri 01:17:46 AM 58.2167 -156.5000 284° West 490 564 40,000  Level Anchorage Center
Fri 01:18:46 AM 58.2333 -156.7500 277° West 500 575 40,000  Level Anchorage Center
Fri 01:19:47 AM 58.2667 -157.0000 284° West 500 575 40,000  Level Anchorage Center
Fri 01:20:47 AM 58.2833 -157.2667 277° West 500 575 40,000  Level Anchorage Center
Fri 01:21:48 AM 58.3167 -157.5333 283° West 500 575 40,000  Level Anchorage Center
Fri 01:22:48 AM 58.3333 -157.8000 277° West 500 575 40,000  Level Anchorage Center
Fri 01:23:48 AM 58.3667 -158.0500 284° West 500 575 40,000  Level Anchorage Center
Fri 01:24:49 AM 58.3833 -158.3167 277° West 490 564 40,000  Level Anchorage Center
Fri 01:25:49 AM 58.4000 -158.5833 277° West 500 575 40,000  Level Anchorage Center
Fri 01:26:49 AM 58.4333 -158.8500 284° West 490 564 40,000  Level Anchorage Center
Fri 01:27:50 AM 58.4500 -159.1167 277° West 500 575 40,000  Level Anchorage Center
Fri 01:28:50 AM 58.4667 -159.3833 277° West 500 575 40,000  Level Anchorage Center
Fri 01:29:50 AM 58.5000 -159.6333 284° West 500 575 40,000  Level Anchorage Center
Fri 01:30:50 AM 58.5167 -159.9000 277° West 500 575 40,000  Level Anchorage Center
Fri 01:31:51 AM 58.5333 -160.1667 277° West 490 564 40,000  Level Anchorage Center
Fri 01:32:51 AM 58.5500 -160.4333 277° West 500 575 40,000  Level Anchorage Center
Fri 01:33:51 AM 58.5667 -160.7000 277° West 490 564 40,000  Level Anchorage Center
Fri 01:34:52 AM 58.5833 -160.9667 277° West 500 575 40,000  Level Anchorage Center
Fri 01:35:52 AM 58.6000 -161.2333 277° West 500 575 40,000  Level Anchorage Center
Fri 01:36:52 AM 58.6167 -161.5000 277° West 490 564 40,000  Level Anchorage Center
Fri 01:37:53 AM 58.6333 -161.7500 277° West 490 564 40,000  Level Anchorage Center
Fri 01:38:53 AM 58.6500 -162.0500 276° West 500 575 40,000  Level Anchorage Center
Fri 01:39:53 AM 58.6667 -162.3167 277° West 510 587 40,000  Level Anchorage Center
Fri 01:40:54 AM 58.6667 -162.6000 270° West 500 575 40,000  Level Anchorage Center
Fri 01:41:54 AM 58.6833 -162.8667 277° West 490 564 40,000  Level Anchorage Center
Fri 01:42:54 AM 58.7000 -163.1333 277° West 510 587 40,000  Level Anchorage Center
Fri 01:43:55 AM 58.7000 -163.4000 270° West 500 575 40,000  Level Anchorage Center
Fri 01:44:55 AM 58.7167 -163.6667 277° West 490 564 40,000  Level Anchorage Center
Fri 01:45:55 AM 58.7333 -163.9333 277° West 500 575 40,000  Level Anchorage Center
Fri 01:46:56 AM 58.7333 -164.2000 270° West 500 575 40,000  Level Anchorage Center
Fri 01:47:56 AM 58.7500 -164.4833 277° West 490 564 40,000  Level Anchorage Center
Fri 01:49:57 AM 58.7667 -165.0167 274° West 500 575 40,000  Level Anchorage Center
Fri 01:50:59 AM 58.7667 -165.2833 270° West 500 575 40,000  Level Anchorage Center
Fri 01:51:59 AM 58.7667 -165.5500 270° West 500 575 40,000  Level Anchorage Center
Fri 01:52:59 AM 58.7833 -165.8333 277° West 510 587 40,000  Level Anchorage Center
Fri 01:53:59 AM 58.7833 -166.1000 270° West 500 575 40,000  Level Anchorage Center
Fri 01:54:59 AM 58.7833 -166.3667 270° West 500 575 40,000  Level Anchorage Center
Fri 01:55:59 AM 58.7833 -166.6333 270° West 500 575 40,000  Level Anchorage Center
Fri 01:56:59 AM 58.8000 -166.9167 277° West 490 564 40,000  Level Anchorage Center
Fri 01:57:59 AM 58.7833 -167.1833 263° West 480 552 40,000  Level Anchorage Center
Fri 01:59:00 AM 58.8000 -167.4500 277° West 490 564 40,000  Level Anchorage Center
Fri 02:00:00 AM 58.8000 -167.7167 270° West 490 564 40,000  Level Anchorage Center
Fri 02:01:00 AM 58.8000 -167.9833 270° West 490 564 40,000  Level Anchorage Center
Fri 02:02:00 AM 58.8000 -168.2500 270° West 490 564 40,000  Level Anchorage Center
Fri 02:03:00 AM 58.8000 -168.5167 270° West 500 575 40,000  Level Anchorage Center
Fri 02:04:00 AM 58.8000 -168.7667 270° West 480 552 40,000  Level Anchorage Center
Fri 02:05:00 AM 58.8000 -169.0333 270° West 490 564 40,000  Level Anchorage Center
Fri 02:06:00 AM 58.8000 -169.3167 270° West 500 575 40,000  Level Anchorage Center
Fri 02:07:00 AM 58.7833 -169.5833 263° West 490 564 40,000  Level Anchorage Center
Fri 02:08:00 AM 58.7833 -169.8500 270° West 500 575 40,000  Level Anchorage Center
Fri 02:09:00 AM 58.7833 -170.1167 270° West 500 575 40,000  Level Anchorage Center
Fri 02:10:00 AM 58.7833 -170.3833 270° West 500 575 40,000  Level Anchorage Center
Fri 02:11:00 AM 58.7667 -170.6667 264° West 500 575 40,000  Level Anchorage Center
Fri 02:12:00 AM 58.7667 -170.9333 270° West 500 575 40,000  Level Anchorage Center
Fri 02:13:00 AM 58.7667 -171.2000 270° West 490 564 40,000  Level Anchorage Center
Fri 02:14:01 AM 58.7500 -171.4667 263° West 500 575 40,000  Level Anchorage Center
Fri 02:15:01 AM 58.7333 -171.7333 263° West 490 564 40,000  Level Anchorage Center
Fri 02:16:00 AM 58.7333 -172.0000 270° West 500 575 40,000  Level Anchorage Center
Fri 02:17:01 AM 58.7167 -172.2667 263° West 500 575 40,000  Level Anchorage Center
Fri 02:18:01 AM 58.7000 -172.5333 263° West 500 575 40,000  Level Anchorage Center
Fri 02:19:00 AM 58.6833 -172.8000 263° West 500 575 40,000  Level Anchorage Center
Fri 02:20:01 AM 58.6667 -173.0667 263° West 500 575 40,000  Level Anchorage Center
Fri 02:21:01 AM 58.6500 -173.3333 263° West 490 564 40,000  Level Anchorage Center
Fri 02:22:01 AM 58.6500 -173.6000 270° West 500 575 40,000  Level Anchorage Center
Fri 02:23:01 AM 58.6333 -173.8667 263° West 490 564 40,000  Level Anchorage Center
Fri 02:24:01 AM 58.6000 -174.1333 257° West 500 575 40,000  Level Anchorage Center
Fri 02:25:01 AM 58.5833 -174.3833 263° West 500 575 40,000  Level Anchorage Center
Fri 02:26:01 AM 58.5667 -174.6500 263° West 490 564 40,000  Level Anchorage Center
Fri 02:27:01 AM 58.5500 -174.9167 263° West 500 575 40,000  Level Anchorage Center
Fri 02:28:01 AM 58.5333 -175.1833 263° West 490 564 40,000  Level Anchorage Center
Fri 02:29:01 AM 58.5167 -175.4333 263° West 490 564 40,000  Level Anchorage Center
Fri 02:30:01 AM 58.4833 -175.7000 257° West 490 564 40,000  Level Anchorage Center
Fri 02:31:01 AM 58.4667 -175.9500 263° West 490 564 40,000  Level Anchorage Center
Fri 02:32:01 AM 58.4500 -176.2167 263° West 490 564 40,000  Level Anchorage Center
Fri 02:33:01 AM 58.4333 -176.4667 263° West 490 564 40,000  Level Anchorage Center
Fri 02:34:02 AM 58.4000 -176.7333 257° West 480 552 40,000  Level Anchorage Center
Fri 02:35:01 AM 58.3833 -176.9833 263° West 490 564 40,000  Level Anchorage Center
Fri 02:38:00 AM 58.2834 -177.4377 245° Southwest  Level FlightAware Approximate
Fri 02:45:00 AM 57.8795 -179.0046 244° Southwest  Level FlightAware Approximate
Fri 02:46:00 AM 57.8201 -179.2254 243° Southwest  Level FlightAware Approximate
Fri 02:47:00 AM 57.7603 -179.4455 243° Southwest  Level FlightAware Approximate
Fri 02:48:00 AM 57.7001 -179.6649 243° Southwest  Level FlightAware Approximate
Fri 02:49:00 AM 57.6396 -179.8835 243° Southwest  Level FlightAware Approximate
Fri 02:50:00 AM 57.5787 179.8986 243° Southwest  Level FlightAware Approximate
Fri 02:51:00 AM 57.5174 179.6815 242° Southwest  Level FlightAware Approximate
Fri 02:52:00 AM 57.3191 178.9630 241° Southwest 499 574 40,000  Level FlightAware Transoceanic
Fri 02:53:00 AM 57.2528 178.7387 241° Southwest 499 574 40,000  Level FlightAware Transoceanic
Fri 02:54:00 AM 57.1861 178.5152 241° Southwest 499 574 40,000  Level FlightAware Transoceanic
Fri 02:55:00 AM 57.1190 178.2925 241° Southwest 499 574 40,000  Level FlightAware Transoceanic
Fri 02:56:00 AM 57.0515 178.0706 241° Southwest 499 574 40,000  Level FlightAware Transoceanic
Fri 02:57:00 AM 56.9836 177.8495 240° Southwest 499 574 40,000  Level FlightAware Transoceanic
Fri 02:58:00 AM 56.9153 177.6292 240° Southwest 499 574 40,000  Level FlightAware Transoceanic
Fri 02:59:00 AM 56.8466 177.4097 240° Southwest 499 574 40,000  Level FlightAware Transoceanic
Fri 03:00:00 AM 56.7775 177.1911 240° Southwest 499 574 40,000  Level FlightAware Transoceanic
Fri 03:01:00 AM 56.7081 176.9732 240° Southwest 499 574 40,000  Level FlightAware Transoceanic
Fri 03:02:00 AM 56.6383 176.7561 240° Southwest 499 574 40,000  Level FlightAware Transoceanic
Fri 03:03:00 AM 56.5681 176.5399 239° Southwest 499 574 40,000  Level FlightAware Transoceanic
Fri 03:04:00 AM 56.4975 176.3244 239° Southwest 499 574 40,000  Level FlightAware Transoceanic
Fri 03:05:00 AM 56.4266 176.1098 239° Southwest 499 574 40,000  Level FlightAware Transoceanic
Fri 03:06:00 AM 56.3553 175.8959 239° Southwest 499 574 40,000  Level FlightAware Transoceanic
Fri 03:07:00 AM 56.2836 175.6829 239° Southwest 499 574 40,000 938 Level FlightAware Transoceanic
Fri 03:07:04 AM 56.3167 175.8000 238° Southwest 480 552 41,000  Climbing Anchorage Center
Fri 03:08:00 AM 56.2115 175.4706 238° Southwest 499 574 40,000  Descending FlightAware Transoceanic
Fri 03:08:04 AM 56.2500 175.6000 239° Southwest 500 575 41,000  Climbing Anchorage Center
Fri 03:09:00 AM 56.1391 175.2592 238° Southwest 499 574 40,000  Descending FlightAware Transoceanic
Fri 03:09:04 AM 56.1667 175.3667 237° Southwest 500 575 41,000  Climbing Anchorage Center
Fri 03:10:00 AM 56.0664 175.0485 238° Southwest 499 574 40,000  Descending FlightAware Transoceanic
Fri 03:10:04 AM 56.1000 175.1833 237° Southwest 500 575 41,000  Climbing Anchorage Center
Fri 03:11:00 AM 55.9933 174.8387 238° Southwest 499 574 40,000  Descending FlightAware Transoceanic
Fri 03:11:04 AM 56.0333 174.9500 243° Southwest 500 575 41,000  Climbing Anchorage Center
Fri 03:12:00 AM 55.9198 174.6296 238° Southwest 499 574 40,000  Descending FlightAware Transoceanic
Fri 03:12:04 AM 55.9667 174.7667 237° Southwest 500 575 41,000 938 Climbing Anchorage Center
Fri 03:13:04 AM 55.8833 174.5333 238° Southwest 500 575 41,000  Level Anchorage Center
Fri 03:14:05 AM 55.8000 174.3000 238° Southwest 500 575 41,000  Level Anchorage Center
Fri 03:15:04 AM 55.7333 174.1167 237° Southwest 500 575 41,000  Level Anchorage Center
Fri 03:16:04 AM 55.6500 173.9000 236° Southwest 500 575 41,000  Level Anchorage Center
Fri 03:17:04 AM 55.5833 173.7167 237° Southwest 500 575 41,000  Level Anchorage Center
Fri 03:18:04 AM 55.5000 173.4833 238° Southwest 500 575 41,000  Level Anchorage Center
Fri 03:19:04 AM 55.4333 173.3167 235° Southwest 510 587 41,000  Level Anchorage Center
Fri 03:20:04 AM 55.3500 173.0833 238° Southwest 510 587 41,000  Level Anchorage Center
Fri 03:21:05 AM 55.2667 172.8667 236° Southwest 500 575 41,000  Level Anchorage Center
Fri 03:22:04 AM 55.2000 172.6833 238° Southwest 510 587 41,000  Level Anchorage Center
Fri 03:23:05 AM 55.1167 172.4667 236° Southwest 500 575 41,000  Level Anchorage Center
Fri 03:24:05 AM 55.0500 172.2833 238° Southwest 520 598 41,000  Level Anchorage Center
Fri 03:25:05 AM 54.9667 172.0833 234° Southwest 490 564 41,000  Level Anchorage Center
Fri 03:26:05 AM 54.9000 171.9167 235° Southwest 490 564 41,000  Level Anchorage Center
Fri 03:27:05 AM 54.8167 171.7000 236° Southwest 490 564 41,000  Level Anchorage Center
Fri 03:28:05 AM 54.7500 171.5333 235° Southwest 490 564 41,000  Level Anchorage Center
Fri 03:29:05 AM 54.6500 171.3333 229° Southwest 500 575 41,000  Level Anchorage Center
Fri 03:30:05 AM 54.5667 171.1167 237° Southwest 500 575 41,000  Level Anchorage Center
Fri 03:31:05 AM 54.5000 170.9667 233° Southwest 470 541 41,000  Level Anchorage Center
Fri 03:32:05 AM 54.4167 170.7667 234° Southwest 480 552 41,000  Level Anchorage Center
Fri 03:33:05 AM 54.3500 170.6167 233° Southwest 480 552 41,000  Level Anchorage Center
Fri 03:34:05 AM 54.2667 170.4000 237° Southwest 490 564 41,000  Level Anchorage Center
Fri 03:35:05 AM 54.2000 170.2500 233° Southwest 490 564 41,000  Level Anchorage Center
Fri 03:36:05 AM 54.1000 170.0500 230° Southwest 470 541 41,000  Level Anchorage Center
Fri 03:37:05 AM 54.0167 169.8500 235° Southwest 490 564 41,000  Level Anchorage Center
Fri 03:38:05 AM 53.9500 169.7000 233° Southwest 480 552 41,000  Level Anchorage Center
Fri 03:39:05 AM 53.8667 169.5000 235° Southwest 470 541 41,000  Level Anchorage Center
Fri 03:40:06 AM 53.7833 169.3333 230° Southwest 490 564 41,000  Level Anchorage Center
Fri 03:41:05 AM 53.7000 169.1500 233° Southwest 480 552 41,000  Level Anchorage Center
Fri 03:42:05 AM 53.6500 168.9833 243° Southwest 460 529 41,000  Level Anchorage Center
Fri 03:43:06 AM 53.5833 168.7833 241° Southwest 450 518 41,000  Level Anchorage Center
Fri 03:44:06 AM 53.5333 168.6167 243° Southwest 490 564 41,000  Level Anchorage Center
Fri 03:45:06 AM 53.4667 168.4167 241° Southwest 460 529 41,000  Level Anchorage Center
Fri 03:46:06 AM 53.3833 168.2167 235° Southwest 460 529 41,000  Level Anchorage Center
Fri 03:47:06 AM 53.3333 168.0500 243° Southwest 470 541 41,000  Level Anchorage Center
Fri 03:48:06 AM 53.2667 167.8500 241° Southwest 460 529 41,000  Level Anchorage Center
Fri 03:51:00 AM 53.1401 167.4933 240° Southwest  Level FlightAware Approximate
Fri 03:58:00 AM 52.6648 166.1971 239° Southwest  Level FlightAware Approximate
Fri 03:59:00 AM 52.5958 166.0142 238° Southwest  Level FlightAware Approximate
Fri 04:00:00 AM 52.5265 165.8320 238° Southwest  Level FlightAware Approximate
Fri 04:01:00 AM 52.4568 165.6503 238° Southwest  Level FlightAware Approximate
Fri 04:02:00 AM 52.3870 165.4691 238° Southwest  Level FlightAware Approximate
Fri 04:03:00 AM 52.3168 165.2886 238° Southwest  Level FlightAware Approximate
Fri 04:04:00 AM 52.2464 165.1086 237° Southwest  Level FlightAware Approximate
Fri 04:05:00 AM 52.1757 164.9292 237° Southwest  Level FlightAware Approximate
Fri 04:06:00 AM 52.1047 164.7504 237° Southwest  Level FlightAware Approximate
Fri 04:07:00 AM 52.0335 164.5721 237° Southwest  Level FlightAware Approximate
Fri 04:08:00 AM 51.9619 164.3944 237° Southwest  Level FlightAware Approximate
Fri 04:09:00 AM 51.8902 164.2173 237° Southwest  Level FlightAware Approximate
Fri 04:10:00 AM 51.8181 164.0407 237° Southwest  Level FlightAware Approximate
Fri 04:11:00 AM 51.7458 163.8647 236° Southwest  Level FlightAware Approximate
Fri 04:12:00 AM 51.6732 163.6893 236° Southwest  Level FlightAware Approximate
Fri 04:13:00 AM 51.6000 163.5148 236° Southwest  Level FlightAware Approximate
Fri 04:13:38 AM 51.6500 163.6500 236° Southwest 454 522 41,000  Level Anchorage Center
Fri 04:14:00 AM 51.5264 163.3411 236° Southwest  Level FlightAware Approximate
Fri 04:15:00 AM 51.4525 163.1680 236° Southwest  Level FlightAware Approximate
Fri 04:16:00 AM 51.3783 162.9954 235° Southwest  Level FlightAware Approximate
Fri 04:17:00 AM 51.3039 162.8234 235° Southwest  Level FlightAware Approximate
Fri 04:18:00 AM 51.2292 162.6519 235° Southwest  Level FlightAware Approximate
Fri 04:19:00 AM 51.0721 162.2890 235° Southwest 454 522 41,000  Level FlightAware Transoceanic
Fri 04:20:00 AM 50.9988 162.1213 235° Southwest 454 522 41,000  Level FlightAware Transoceanic
Fri 04:21:00 AM 50.9252 161.9541 235° Southwest 454 522 41,000  Level FlightAware Transoceanic
Fri 04:22:00 AM 50.8514 161.7874 235° Southwest 454 522 41,000  Level FlightAware Transoceanic
Fri 04:23:00 AM 50.7774 161.6213 235° Southwest 454 522 41,000  Level FlightAware Transoceanic
Fri 04:24:00 AM 50.7031 161.4557 235° Southwest 454 522 41,000  Level FlightAware Transoceanic
Fri 04:25:00 AM 50.6286 161.2906 234° Southwest 454 522 41,000  Level FlightAware Transoceanic
Fri 04:26:00 AM 50.5538 161.1260 234° Southwest 454 522 41,000  Level FlightAware Transoceanic
Fri 04:27:00 AM 50.4789 160.9620 234° Southwest 454 522 41,000  Level FlightAware Transoceanic
Fri 04:28:00 AM 50.4037 160.7985 234° Southwest 454 522 41,000  Level FlightAware Transoceanic
Fri 04:29:00 AM 50.3282 160.6355 234° Southwest 454 522 41,000  Level FlightAware Transoceanic
Fri 04:30:00 AM 50.2526 160.4730 234° Southwest 454 522 41,000  Level FlightAware Transoceanic
Fri 04:31:00 AM 50.1767 160.3110 234° Southwest 454 522 41,000  Level FlightAware Transoceanic
Fri 04:32:00 AM 50.1006 160.1496 234° Southwest 454 522 41,000  Level FlightAware Transoceanic
Fri 04:33:00 AM 50.0242 159.9886 233° Southwest 454 522 41,000  Level FlightAware Transoceanic
Fri 04:34:00 AM 49.9477 159.8282 233° Southwest 454 522 41,000  Level FlightAware Transoceanic
Fri 04:35:00 AM 49.8709 159.6683 233° Southwest 454 522 41,000  Level FlightAware Transoceanic
Fri 04:36:00 AM 49.7939 159.5089 233° Southwest 454 522 41,000  Level FlightAware Transoceanic
Fri 04:37:00 AM 49.7167 159.3500 233° Southwest 454 522 41,000  Level FlightAware Transoceanic
Fri 04:38:00 AM 49.6356 159.1846 233° Southwest 454 522 41,000  Level FlightAware Transoceanic
Fri 04:39:00 AM 49.5544 159.0198 233° Southwest 454 522 41,000  Level FlightAware Transoceanic
Fri 04:40:00 AM 49.4729 158.8555 233° Southwest 454 522 41,000  Level FlightAware Transoceanic
Fri 04:41:00 AM 49.3912 158.6918 232° Southwest 454 522 41,000  Level FlightAware Transoceanic
Fri 04:42:00 AM 49.3092 158.5286 232° Southwest 454 522 41,000  Level FlightAware Transoceanic
Fri 04:43:00 AM 49.2270 158.3659 232° Southwest 454 522 41,000  Level FlightAware Transoceanic
Fri 04:44:00 AM 49.1446 158.2038 232° Southwest 454 522 41,000  Level FlightAware Transoceanic
Fri 04:45:00 AM 49.0619 158.0422 232° Southwest 454 522 41,000  Level FlightAware Transoceanic
Fri 04:46:00 AM 48.9791 157.8812 232° Southwest 454 522 41,000  Level FlightAware Transoceanic
Fri 04:47:00 AM 48.8960 157.7207 232° Southwest 454 522 41,000  Level FlightAware Transoceanic
Fri 04:48:00 AM 48.8127 157.5607 232° Southwest 454 522 41,000  Level FlightAware Transoceanic
Fri 04:49:00 AM 48.7291 157.4013 231° Southwest 454 522 41,000  Level FlightAware Transoceanic
Fri 04:50:00 AM 48.6454 157.2424 231° Southwest 454 522 41,000  Level FlightAware Transoceanic
Fri 04:51:00 AM 48.5614 157.0840 231° Southwest 454 522 41,000  Level FlightAware Transoceanic
Fri 04:52:00 AM 48.4772 156.9262 231° Southwest 454 522 41,000  Level FlightAware Transoceanic
Fri 04:53:00 AM 48.3928 156.7688 231° Southwest 454 522 41,000  Level FlightAware Transoceanic
Fri 04:54:00 AM 48.3082 156.6120 231° Southwest 454 522 41,000  Level FlightAware Transoceanic
Fri 04:55:00 AM 48.2234 156.4557 231° Southwest 454 522 41,000  Level FlightAware Transoceanic
Fri 04:56:00 AM 48.1383 156.3000 231° Southwest 454 522 41,000  Level FlightAware Transoceanic
Fri 04:57:00 AM 48.0531 156.1447 231° Southwest 454 522 41,000  Level FlightAware Transoceanic
Fri 04:58:00 AM 47.9676 155.9900 230° Southwest 454 522 41,000  Level FlightAware Transoceanic
Fri 04:59:00 AM 47.8820 155.8358 230° Southwest 454 522 41,000  Level FlightAware Transoceanic
Fri 05:00:00 AM 47.7961 155.6820 230° Southwest 454 522 41,000  Level FlightAware Transoceanic
Fri 05:01:00 AM 47.7100 155.5288 230° Southwest 454 522 41,000  Level FlightAware Transoceanic
Fri 05:02:00 AM 47.6237 155.3761 230° Southwest 454 522 41,000  Level FlightAware Transoceanic
Fri 05:03:00 AM 47.5373 155.2239 230° Southwest 454 522 41,000  Level FlightAware Transoceanic
Fri 05:04:00 AM 47.4506 155.0722 230° Southwest 454 522 41,000  Level FlightAware Transoceanic
Fri 05:05:00 AM 47.3637 154.9210 230° Southwest 454 522 41,000  Level FlightAware Transoceanic
Fri 05:06:00 AM 47.2766 154.7703 230° Southwest 454 522 41,000  Level FlightAware Transoceanic
Fri 05:07:00 AM 47.1893 154.6201 229° Southwest 454 522 41,000  Level FlightAware Transoceanic
Fri 05:08:00 AM 47.1019 154.4704 229° Southwest 454 522 41,000  Level FlightAware Transoceanic
Fri 05:09:00 AM 47.0142 154.3212 229° Southwest 454 522 41,000  Level FlightAware Transoceanic
Fri 05:10:00 AM 46.9263 154.1725 229° Southwest 454 522 41,000  Level FlightAware Transoceanic
Fri 05:11:00 AM 46.8383 154.0242 229° Southwest 454 522 41,000  Level FlightAware Transoceanic
Fri 05:12:00 AM 46.7501 153.8765 229° Southwest 454 522 41,000  Level FlightAware Transoceanic
Fri 05:13:00 AM 46.6616 153.7292 229° Southwest 454 522 41,000  Level FlightAware Transoceanic
Fri 05:14:00 AM 46.5730 153.5824 229° Southwest 454 522 41,000  Level FlightAware Transoceanic
Fri 05:15:00 AM 46.4842 153.4361 229° Southwest 454 522 41,000  Level FlightAware Transoceanic
Fri 05:16:00 AM 46.3952 153.2903 228° Southwest 454 522 41,000  Level FlightAware Transoceanic
Fri 05:17:00 AM 46.3060 153.1449 228° Southwest 454 522 41,000  Level FlightAware Transoceanic
Fri 05:18:00 AM 46.2193 153.0042 228° Southwest  Level FlightAware Approximate
Fri 05:19:00 AM 46.1323 152.8640 228° Southwest  Level FlightAware Approximate
Fri 05:20:00 AM 46.1344 152.8687 228° Southwest  Level FlightAware Approximate
Fri 05:21:00 AM 46.0467 152.7296 228° Southwest  Level FlightAware Approximate
Fri 05:22:00 AM 45.9589 152.5909 228° Southwest  Level FlightAware Approximate
Fri 05:23:00 AM 45.8709 152.4527 228° Southwest  Level FlightAware Approximate
Fri 05:24:00 AM 45.7828 152.3149 228° Southwest  Level FlightAware Approximate
Fri 05:25:00 AM 45.6945 152.1775 227° Southwest  Level FlightAware Approximate
Fri 05:26:00 AM 45.6060 152.0405 227° Southwest  Level FlightAware Approximate
Fri 05:27:00 AM 45.5174 151.9040 227° Southwest  Level FlightAware Approximate
Fri 05:28:00 AM 45.4286 151.7680 227° Southwest  Level FlightAware Approximate
Fri 05:29:00 AM 45.3396 151.6323 227° Southwest  Level FlightAware Approximate
Fri 05:30:00 AM 45.2505 151.4971 227° Southwest  Level FlightAware Approximate
Fri 05:31:00 AM 45.1612 151.3623 227° Southwest  Level FlightAware Approximate
Fri 05:32:00 AM 45.0718 151.2279 227° Southwest  Level FlightAware Approximate
Fri 05:33:00 AM 44.9822 151.0939 227° Southwest  Level FlightAware Approximate
Fri 05:34:00 AM 44.8924 150.9604 227° Southwest  Level FlightAware Approximate
Fri 05:35:00 AM 44.8025 150.8273 226° Southwest  Level FlightAware Approximate
Fri 05:36:00 AM 44.7124 150.6946 226° Southwest  Level FlightAware Approximate
Fri 05:37:00 AM 44.6222 150.5623 226° Southwest  Level FlightAware Approximate
Fri 05:38:00 AM 44.5319 150.4304 226° Southwest  Level FlightAware Approximate
Fri 05:39:00 AM 44.4413 150.2989 226° Southwest  Level FlightAware Approximate
Fri 05:40:00 AM 44.3507 150.1678 226° Southwest  Level FlightAware Approximate
Fri 05:41:00 AM 44.2598 150.0372 226° Southwest  Level FlightAware Approximate
Fri 05:42:00 AM 44.1689 149.9069 226° Southwest  Level FlightAware Approximate
Fri 05:43:00 AM 44.0778 149.7770 226° Southwest  Level FlightAware Approximate
Fri 05:44:00 AM 43.9865 149.6476 226° Southwest  Level FlightAware Approximate
Fri 05:45:00 AM 43.8951 149.5185 226° Southwest  Level FlightAware Approximate
Fri 05:46:00 AM 43.8035 149.3898 225° Southwest  Level FlightAware Approximate
Fri 05:47:00 AM 43.7118 149.2616 225° Southwest  Level FlightAware Approximate
Fri 05:48:00 AM 43.6200 149.1337 225° Southwest  Level FlightAware Approximate
Fri 05:49:00 AM 43.5280 149.0062 225° Southwest  Level FlightAware Approximate
Fri 05:50:00 AM 43.4359 148.8791 225° Southwest  Level FlightAware Approximate
Fri 05:51:00 AM 43.3436 148.7524 225° Southwest  Level FlightAware Approximate
Fri 05:52:00 AM 43.2512 148.6261 225° Southwest  Level FlightAware Approximate
Fri 05:52:13 AM 43.5820 149.0810 225° Southwest 434 499 41,000  Level FlightAware ADS-B
Fri 05:52:57 AM 43.5320 149.0120 225° Southwest 434 499 41,000  Level FlightAware ADS-B
Fri 05:53:00 AM 43.1587 148.5001 225° Southwest  Level FlightAware Approximate
Fri 05:53:43 AM 43.4540 148.9050 225° Southwest 439 505 41,000  Level FlightAware ADS-B
Fri 05:54:23 AM 43.4000 148.8300 225° Southwest 439 505 41,000  Level FlightAware ADS-B
Fri 05:55:03 AM 43.3420 148.7500 225° Southwest 439 505 41,000  Level FlightAware ADS-B
Fri 05:56:01 AM 43.2600 148.6380 225° Southwest 439 505 41,000  Level FlightAware ADS-B
Fri 05:56:40 AM 43.1990 148.5550 225° Southwest 438 504 41,000  Level FlightAware ADS-B
Fri 05:57:25 AM 43.1300 148.4610 225° Southwest 438 504 41,000  Level FlightAware ADS-B
Fri 05:58:05 AM 43.0730 148.3840 225° Southwest 437 503 41,000  Level FlightAware ADS-B
Fri 05:58:45 AM 43.0140 148.3040 225° Southwest 437 503 41,000  Level FlightAware ADS-B
Fri 05:59:25 AM 42.9570 148.2260 225° Southwest 437 503 41,000  Level FlightAware ADS-B
Fri 06:00:10 AM 42.8920 148.1400 224° Southwest 438 504 41,000  Level FlightAware ADS-B
Fri 06:00:50 AM 42.8360 148.0650 224° Southwest 437 503 41,000  Level FlightAware ADS-B
Fri 06:01:35 AM 42.7670 147.9720 225° Southwest 437 503 41,000  Level FlightAware ADS-B
Fri 06:02:16 AM 42.7090 147.8960 224° Southwest 439 505 41,000  Level FlightAware ADS-B
Fri 06:02:56 AM 42.6480 147.8140 225° Southwest 446 513 41,000  Level FlightAware ADS-B
Fri 06:03:41 AM 42.5810 147.7260 224° Southwest 447 514 41,000  Level FlightAware ADS-B
Fri 06:04:21 AM 42.5230 147.6490 224° Southwest 448 516 41,000  Level FlightAware ADS-B
Fri 06:05:06 AM 42.4560 147.5610 224° Southwest 449 517 41,000  Level FlightAware ADS-B
Fri 06:05:46 AM 42.3970 147.4830 224° Southwest 450 518 41,000  Level FlightAware ADS-B
Fri 06:06:26 AM 42.3370 147.4050 224° Southwest 451 519 41,000  Level FlightAware ADS-B
Fri 06:07:11 AM 42.2690 147.3160 224° Southwest 452 520 41,000  Level FlightAware ADS-B
Fri 06:07:51 AM 42.2090 147.2370 224° Southwest 452 520 41,000  Level FlightAware ADS-B
Fri 06:08:31 AM 42.1480 147.1590 223° Southwest 453 521 41,000  Level FlightAware ADS-B
Fri 06:09:16 AM 42.0810 147.0710 224° Southwest 453 521 41,000  Level FlightAware ADS-B
Fri 06:10:01 AM 42.0130 146.9830 224° Southwest 448 516 41,000  Level FlightAware ADS-B
Fri 06:10:41 AM 41.9510 146.9040 223° Southwest 449 517 41,000  Level FlightAware ADS-B
Fri 06:11:28 AM 41.8830 146.8170 224° Southwest 450 518 41,000  Level FlightAware ADS-B
Fri 06:12:11 AM 41.8150 146.7290 224° Southwest 450 518 41,000  Level FlightAware ADS-B
Fri 06:12:56 AM 41.7460 146.6420 223° Southwest 449 517 41,000  Level FlightAware ADS-B
Fri 06:13:37 AM 41.6870 146.5650 224° Southwest 450 518 41,000  Level FlightAware ADS-B
Fri 06:14:21 AM 41.6170 146.4770 223° Southwest 449 517 41,000  Level FlightAware ADS-B
Fri 06:14:56 AM 41.5640 146.4090 224° Southwest 449 517 41,000  Level FlightAware ADS-B
Fri 06:15:41 AM 41.4950 146.3220 223° Southwest 449 517 41,000  Level FlightAware ADS-B
Fri 06:16:26 AM 41.4290 146.2390 223° Southwest 449 517 41,000  Level FlightAware ADS-B
Fri 06:17:11 AM 41.3590 146.1510 223° Southwest 449 517 41,000  Level FlightAware ADS-B
Fri 06:17:51 AM 41.2960 146.0720 223° Southwest 450 518 41,000  Level FlightAware ADS-B
Fri 06:18:36 AM 41.2280 145.9870 223° Southwest 450 518 41,000  Level FlightAware ADS-B
Fri 06:19:21 AM 41.1580 145.9000 223° Southwest 459 528 41,000  Level FlightAware ADS-B
Fri 06:19:56 AM 41.1040 145.8330 223° Southwest 459 528 41,000  Level FlightAware ADS-B
Fri 06:20:46 AM 41.0270 145.7370 223° Southwest 461 531 41,000  Level FlightAware ADS-B
Fri 06:21:26 AM 40.9640 145.6600 223° Southwest 461 531 41,000  Level FlightAware ADS-B
Fri 06:22:06 AM 40.9010 145.5820 223° Southwest 462 532 41,000  Level FlightAware ADS-B
Fri 06:22:46 AM 40.8400 145.5070 223° Southwest 462 532 41,000  Level FlightAware ADS-B
Fri 06:23:31 AM 40.7780 145.4310 223° Southwest 462 532 41,000  Level FlightAware ADS-B
Fri 06:24:18 AM 40.7160 145.3540 223° Southwest 462 532 41,000  Level FlightAware ADS-B
Fri 06:24:54 AM 40.6680 145.2960 223° Southwest 462 532 41,000  Level FlightAware ADS-B
Fri 06:25:31 AM 40.6190 145.2350 223° Southwest 462 532 41,000  Level FlightAware ADS-B
Fri 06:26:19 AM 40.5550 145.1570 223° Southwest 462 532 41,000  Level FlightAware ADS-B
Fri 06:27:01 AM 40.4420 145.0220 222° Southwest 462 532 41,000  Level FlightAware ADS-B
Fri 06:27:46 AM 40.3850 144.9220 233° Southwest 458 527 41,000  Level FlightAware ADS-B
Fri 06:28:27 AM 40.3410 144.8270 239° Southwest 458 527 41,000  Level FlightAware ADS-B
Fri 06:29:06 AM 40.2940 144.7270 238° Southwest 458 527 41,000  Level FlightAware ADS-B
Fri 06:30:21 AM 40.2220 144.5740 238° Southwest 462 532 41,000  Level FlightAware ADS-B
Fri 06:30:57 AM 40.1870 144.5010 238° Southwest 462 532 41,000  Level FlightAware ADS-B
Fri 06:31:46 AM 40.1400 144.4020 238° Southwest 462 532 41,000  Level FlightAware ADS-B
Fri 06:32:22 AM 40.1050 144.3300 238° Southwest 462 532 41,000  Level FlightAware ADS-B
Fri 06:33:09 AM 40.0600 144.2350 238° Southwest 462 532 41,000  Level FlightAware ADS-B
Fri 06:33:45 AM 40.0250 144.1630 238° Southwest 462 532 41,000  Level FlightAware ADS-B
Fri 06:34:34 AM 39.9780 144.0640 238° Southwest 462 532 41,000  Level FlightAware ADS-B
Fri 06:35:10 AM 39.9440 143.9920 238° Southwest 462 532 41,000  Level FlightAware ADS-B
Fri 06:35:54 AM 39.8360 143.7620 239° Southwest 462 532 41,000  Level FlightAware ADS-B
Fri 06:36:34 AM 39.7970 143.6820 238° Southwest 462 532 41,000  Level FlightAware ADS-B
Fri 06:37:22 AM 39.7510 143.5850 238° Southwest 462 532 41,000  Level FlightAware ADS-B
Fri 06:37:58 AM 39.7160 143.5130 238° Southwest 462 532 41,000  Level FlightAware ADS-B
Fri 06:38:46 AM 39.6700 143.4170 238° Southwest 462 532 41,000  Level FlightAware ADS-B
Fri 06:39:19 AM 39.6020 143.2800 237° Southwest 460 529 41,000  Level FlightAware ADS-B
Fri 06:40:09 AM 39.5460 143.1670 237° Southwest 460 529 41,000  Level FlightAware ADS-B
Fri 06:40:49 AM 39.5000 143.0740 237° Southwest 455 524 41,000  Level FlightAware ADS-B
Fri 06:41:20 AM 39.4650 143.0020 238° Southwest 455 524 41,000  Level FlightAware ADS-B
Fri 06:42:00 AM 39.4190 142.9090 237° Southwest 454 522 41,000  Level FlightAware ADS-B
Fri 06:42:40 AM 39.3740 142.8180 237° Southwest 455 524 41,000  Level FlightAware ADS-B
Fri 06:43:24 AM 39.3250 142.7200 237° Southwest 442 509 41,000  Level FlightAware ADS-B
Fri 06:44:05 AM 39.2790 142.6290 237° Southwest 442 509 41,000  Level FlightAware ADS-B
Fri 06:44:45 AM 39.2370 142.5460 237° Southwest 443 510 41,000  Level FlightAware ADS-B
Fri 06:45:30 AM 39.1750 142.4480 231° Southwest 447 514 41,000  Level FlightAware ADS-B
Fri 06:46:10 AM 39.1220 142.3690 229° Southwest 446 513 41,000  Level FlightAware ADS-B
Fri 06:46:54 AM 39.0620 142.2770 230° Southwest 446 513 41,000  Level FlightAware ADS-B
Fri 06:47:35 AM 39.0080 142.1970 229° Southwest 446 513 41,000  Level FlightAware ADS-B
Fri 06:48:14 AM 38.9560 142.1170 230° Southwest 445 512 41,000  Level FlightAware ADS-B
Fri 06:49:00 AM 38.9250 142.0090 250° West 409 471 41,000  Level FlightAware ADS-B
Fri 06:49:40 AM 38.9130 141.9160 261° West 400 460 41,000  Level FlightAware ADS-B
Fri 06:50:20 AM 38.9000 141.8210 260° West 397 457 41,000  Level FlightAware ADS-B
Fri 06:51:07 AM 38.8730 141.7220 251° West 401 461 41,000  Level FlightAware ADS-B
Fri 06:51:49 AM 38.8280 141.6310 238° Southwest 421 484 41,000  Level FlightAware ADS-B
Fri 06:52:30 AM 38.7800 141.5470 234° Southwest 437 503 41,000  Level FlightAware ADS-B
Fri 06:53:15 AM 38.7030 141.4830 213° Southwest 443 510 41,000  Level FlightAware ADS-B
Fri 06:53:55 AM 38.6270 141.4340 207° Southwest 446 513 41,000  Level FlightAware ADS-B
Fri 06:54:35 AM 38.5520 141.3890 205° Southwest 448 516 41,000  Level FlightAware ADS-B
Fri 06:55:19 AM 38.4660 141.3380 205° Southwest 446 513 41,000  Level FlightAware ADS-B
Fri 06:55:55 AM 38.4020 141.3010 204° Southwest 447 514 41,000  Level FlightAware ADS-B
Fri 06:56:39 AM 38.3140 141.2490 205° Southwest 448 516 41,000  Level FlightAware ADS-B
Fri 06:57:25 AM 38.2260 141.1980 204° Southwest 448 516 41,000  Level FlightAware ADS-B
Fri 06:58:05 AM 38.1520 141.1540 205° Southwest 457 526 41,000  Level FlightAware ADS-B
Fri 06:58:45 AM 38.0730 141.1080 205° Southwest 459 528 41,000  Level FlightAware ADS-B
Fri 06:59:31 AM 37.9850 141.0570 205° Southwest 459 528 41,000  Level FlightAware ADS-B
Fri 06:59:56 AM 37.9380 141.0300 204° Southwest 460 529 41,000  Level FlightAware ADS-B
Fri 07:00:42 AM 37.8510 140.9790 205° Southwest 461 531 41,000  Level FlightAware ADS-B
Fri 07:01:20 AM 37.7740 140.9350 204° Southwest 460 529 41,000 -214 Level FlightAware ADS-B
Fri 07:02:06 AM 37.6850 140.8840 204° Southwest 455 524 40,700 -1,000 Descending FlightAware ADS-B
Fri 07:02:44 AM 37.6140 140.8430 205° Southwest 455 524 39,600 -2,415 Descending FlightAware ADS-B
Fri 07:03:28 AM 37.5300 140.8040 200° South 457 526 37,400 -2,892 Descending FlightAware ADS-B
Fri 07:04:07 AM 37.4550 140.7720 199° South 457 526 35,600 -3,106 Descending FlightAware ADS-B
Fri 07:04:53 AM 37.3670 140.7340 199° South 465 535 33,000 -3,628 Descending FlightAware ADS-B
Fri 07:05:33 AM 37.2760 140.6930 200° South 473 544 30,400 -3,036 Descending FlightAware ADS-B
Fri 07:06:16 AM 37.1940 140.6560 200° South 461 531 28,800 -2,541 Descending FlightAware ADS-B
Fri 07:06:58 AM 37.1070 140.6180 199° South 452 520 26,800 -2,780 Descending FlightAware ADS-B
Fri 07:07:38 AM 37.0250 140.5820 199° South 447 514 25,000 -2,581 Descending FlightAware ADS-B
Fri 07:08:24 AM 36.9380 140.5430 200° South 437 503 23,100 -2,372 Descending FlightAware ADS-B
Fri 07:09:04 AM 36.8670 140.5120 199° South 431 496 21,600 -2,341 Descending FlightAware ADS-B
Fri 07:09:46 AM 36.7870 140.4770 199° South 420 483 19,900 -2,338 Descending FlightAware ADS-B
Fri 07:10:21 AM 36.7180 140.4470 199° South 411 473 18,600 -2,121 Descending FlightAware ADS-B
Fri 07:11:25 AM 36.6130 140.4010 199° South 394 453 16,400 -1,981 Descending FlightAware ADS-B
Fri 07:12:07 AM 36.5530 140.3750 199° South 381 438 15,100 -2,259 Descending FlightAware ADS-B
Fri 07:12:50 AM 36.4700 140.3390 199° South 373 429 13,200 -2,430 Descending FlightAware ADS-B
Fri 07:13:26 AM 36.4110 140.3140 199° South 367 422 11,900 -1,571 Descending FlightAware ADS-B
Fri 07:14:14 AM 36.3370 140.2820 199° South 337 388 11,000 -607 Descending FlightAware ADS-B
Fri 07:14:55 AM 36.2820 140.2590 199° South 297 342 11,000  Level FlightAware ADS-B
Fri 07:15:35 AM 36.2310 140.2470 191° South 278 320 11,000  Level FlightAware ADS-B
Fri 07:16:21 AM 36.1720 140.2360 189° South 275 316 11,000  Level FlightAware ADS-B
Fri 07:16:56 AM 36.1260 140.2260 190° South 273 314 11,000  Level FlightAware ADS-B
Fri 07:17:43 AM 36.0680 140.2150 189° South 274 315 11,000  Level FlightAware ADS-B
Fri 07:18:24 AM 36.0210 140.2060 189° South 276 318 11,000  Level FlightAware ADS-B
Fri 07:19:21 AM 35.9430 140.2080 179° South 272 313 11,000 -253 Level FlightAware ADS-B
Fri 07:19:59 AM 35.8950 140.2090 179° South 271 312 10,600 -585 Descending FlightAware ADS-B
Fri 07:20:43 AM 35.8380 140.2100 179° South 276 318 10,200 -522 Descending FlightAware ADS-B
Fri 07:21:08 AM 35.8060 140.2110 179° South 274 315 10,000 -588 Descending FlightAware ADS-B
Fri 07:21:34 AM 35.7730 140.2120 179° South 272 313 9,700 -632 Descending FlightAware ADS-B
Fri 07:22:05 AM 35.7350 140.2130 179° South 271 312 9,400 -563 Descending FlightAware ADS-B
Fri 07:22:38 AM 35.6990 140.2140 179° South 260 299 9,100 -577 Descending FlightAware ADS-B
Fri 07:22:57 AM 35.6710 140.2150 178° South 256 295 8,900 -656 Descending FlightAware ADS-B
Fri 07:23:42 AM 35.6140 140.2140 181° South 264 304 8,400 -740 Descending FlightAware ADS-B
Fri 07:24:10 AM 35.5830 140.2110 185° South 257 296 8,000 -783 Descending FlightAware ADS-B
Fri 07:24:28 AM 35.5600 140.2100 182° South 247 284 7,800 -732 Descending FlightAware ADS-B
Fri 07:24:51 AM 35.5350 140.2090 182° South 244 281 7,500 -1,050 Descending FlightAware ADS-B
Fri 07:25:08 AM 35.5140 140.2090 180° South 246 283 7,100 -1,149 Descending FlightAware ADS-B
Fri 07:25:38 AM 35.4810 140.2080 181° South 250 288 6,600 -740 Descending FlightAware ADS-B
Fri 07:26:21 AM 35.4320 140.2070 181° South 229 264 6,200 -627 Descending FlightAware ADS-B
Fri 07:26:45 AM 35.4090 140.2060 182° South 224 258 5,900 -878 Descending FlightAware ADS-B
Fri 07:27:02 AM 35.3920 140.2040 185° South 223 257 5,600 -1,067 Descending FlightAware ADS-B
Fri 07:27:30 AM 35.3590 140.2010 184° South 220 253 5,100 -915 Descending FlightAware ADS-B
Fri 07:28:01 AM 35.3300 140.1970 186° South 214 246 4,700 -682 Descending FlightAware ADS-B
Fri 07:28:14 AM 35.3190 140.1910 204° Southwest 205 236 4,600 -857 Descending FlightAware ADS-B
Fri 07:28:43 AM 35.2940 140.1720 212° Southwest 213 245 4,100 -667 Descending FlightAware ADS-B
Fri 07:29:08 AM 35.2750 140.1540 218° Southwest 215 247 4,000 -158 Descending FlightAware ADS-B
Fri 07:29:21 AM 35.2710 140.1430 246° West 210 242 4,000  Level FlightAware ADS-B
Fri 07:29:52 AM 35.2640 140.1030 258° West 208 239 4,000  Level FlightAware ADS-B
Fri 07:30:17 AM 35.2590 140.0750 258° West 206 237 4,000  Level FlightAware ADS-B
Fri 07:31:00 AM 35.2640 140.0270 277° West 200 230 4,000  Level FlightAware ADS-B
Fri 07:31:27 AM 35.2780 140.0000 302° West 194 223 4,000  Level FlightAware ADS-B
Fri 07:31:58 AM 35.2980 139.9760 316° Northwest 188 216 4,000  Level FlightAware ADS-B
Fri 07:32:23 AM 35.3160 139.9640 331° Northwest 188 216 4,000  Level FlightAware ADS-B
Fri 07:32:38 AM 35.3270 139.9550 326° Northwest 188 216 4,000  Level FlightAware ADS-B
Fri 07:33:03 AM 35.3470 139.9410 330° Northwest 187 215 4,000 -109 Level FlightAware ADS-B
Fri 07:33:33 AM 35.3700 139.9250 330° Northwest 189 217 3,900 -533 Descending FlightAware ADS-B
Fri 07:33:48 AM 35.3810 139.9170 329° Northwest 191 220 3,600 -1,050 Descending FlightAware ADS-B
Fri 07:34:13 AM 35.4000 139.9040 331° Northwest 190 219 3,200 -1,000 Descending FlightAware ADS-B
Fri 07:34:42 AM 35.4220 139.8880 329° Northwest 188 216 2,700 -1,000 Descending FlightAware ADS-B
Fri 07:35:07 AM 35.4410 139.8750 331° Northwest 171 197 2,300 -900 Descending FlightAware ADS-B
Fri 07:35:42 AM 35.4640 139.8590 330° Northwest 167 192 1,800 -831 Descending FlightAware ADS-B
Fri 07:36:12 AM 35.4840 139.8450 330° Northwest 151 174 1,400 -840 Descending FlightAware ADS-B
Fri 07:36:32 AM 35.4960 139.8360 329° Northwest 136 157 1,100 -900 Descending FlightAware ADS-B
Fri 07:36:52 AM 35.5070 139.8280 329° Northwest 136 157 800 -766 Descending FlightAware ADS-B
Fri 07:37:19 AM 35.5220 139.8170 329° Northwest 142 163 500 -655 Descending FlightAware ADS-B
Fri 07:37:47 AM 35.5370 139.8070 332° Northwest 137 158 200 -643 Descending FlightAware ADS-B
Fri 07:38:00 AM 35.5440 139.8020 330° Northwest 138 159 -923 Descending FlightAware ADS-B
Fri 07:38:24 AM 35.5530 139.7960 332° Northwest 100 115  Level FlightAware ADS-B
Fri 07:39:39 AM 35.5570 139.7900 309° West 11 13  Level FlightAware ADS-B
Fri 07:40:09 AM 35.5550 139.7920 141° Southeast 16 18  Level FlightAware ADS-B
Fri 07:40:37 AM 35.5530 139.7930 158° South 19 22  Level FlightAware ADS-B
Fri 07:41:05 AM 35.5510 139.7940 158° South 14 16  Level FlightAware ADS-B
Fri 07:41:40 AM 35.5490 139.7960 141° Southeast 17 20  Level FlightAware ADS-B
Fri 07:42:25 AM 35.5470 139.7960 180° South 13 15  Level FlightAware ADS-B
Fri 07:42:50 AM 35.5460 139.7940 238° Southwest 17 20  Level FlightAware ADS-B
Fri 07:43:31 AM 35.5450 139.7920 238° Southwest 16 18  Level FlightAware ADS-B
Fri 07:43:54 AM 35.5440 139.7890 248° West 19 22  Level FlightAware ADS-B
Fri 07:46:00 AM 35.5523 139.7797 202° Southwest  Level Estimated

Login

Don't have an account? Register now (free) for customized features, flight alerts, and more!